WetterOnline ( http://www.wetteronline.de )

Wetter aktuell Bad Hersfeld

Aktuelles Wetter: Bad Hersfeld (273m)

6-stündlich | Neueste Meldungen
Ortszeit Temperatur Wetter
Di, 22.01. 7:00 -11.3° C leicht bewölkt
Di, 22.01. 1:00 -9.1° C wolkenlos
Mo, 21.01. 19:00 -5.1° C wolkenlos
Mo, 21.01. 13:00 -1.0° C wolkenlos
Mo, 21.01. 7:00 -7.6° C bedeckt
Mo, 21.01. 1:00 -7.7° C wolkenlos
So, 20.01. 19:00 -3.4° C wolkenlos
So, 20.01. 13:00 -1.5° C wolkenlos
Ortszeit Temperatur Wetter
Di, 22.01. 9:30 -9.9° C bedeckt
Di, 22.01. 9:20 -9.9° C bedeckt
Di, 22.01. 9:10 -10.2° C bedeckt
Di, 22.01. 9:00 -10.8° C bewölkt
Di, 22.01. 8:50 -10.8° C bewölkt
Di, 22.01. 8:40 -11.4° C bewölkt
Di, 22.01. 8:30 -11.6° C leicht bewölkt
Di, 22.01. 8:00 -11.8° C leicht bewölkt
Di, 22.01. 7:30 -11.4° C leicht bewölkt
Di, 22.01. 7:00 -11.3° C leicht bewölkt
Di, 22.01. 6:30 -11.1° C wolkig
Ortszeit Relative Feuchte Sichtweite
Di, 22.01. 7:00 89% 4.5 km
Di, 22.01. 1:00 92% 3.7 km
Mo, 21.01. 19:00 83% 7 km
Mo, 21.01. 13:00 64% 10 km
Mo, 21.01. 7:00 90% 3.8 km
Mo, 21.01. 1:00 92% 2.8 km
So, 20.01. 19:00 72% 11 km
So, 20.01. 13:00 71% 10 km
Ortszeit Relative Feuchte Sichtweite
Di, 22.01. 9:30 90% 4.5 km
Di, 22.01. 9:20 90% -
Di, 22.01. 9:10 89% -
Di, 22.01. 9:00 90% 4.6 km
Di, 22.01. 8:50 90% -
Di, 22.01. 8:40 88% -
Di, 22.01. 8:30 88% 4.4 km
Di, 22.01. 8:00 88% 4.5 km
Di, 22.01. 7:30 89% 4.4 km
Di, 22.01. 7:00 89% 4.5 km
Di, 22.01. 6:30 89% 4.5 km
Ortszeit Niederschlagsmenge Niederschlagsart
Di, 22.01. 7:00 0.0 l/m2 in 12 Std. -
Di, 22.01. 1:00 0.0 l/m2 in 6 Std. -
Mo, 21.01. 19:00 0.0 l/m2 in 12 Std. -
Mo, 21.01. 13:00 0.0 l/m2 in 6 Std. -
Mo, 21.01. 7:00 0.0 l/m2 in 12 Std. -
Mo, 21.01. 1:00 0.0 l/m2 in 6 Std. -
So, 20.01. 19:00 0.0 l/m2 in 12 Std. -
So, 20.01. 13:00 0.0 l/m2 in 6 Std. -
Ortszeit Niederschlagsmenge Niederschlagsart
Di, 22.01. 9:30 0.0 l/m2 in 1 Std. -
Di, 22.01. 9:20 keine Meldung -
Di, 22.01. 9:10 keine Meldung -
Di, 22.01. 9:00 0.0 l/m2 in 1 Std. -
Di, 22.01. 8:50 keine Meldung -
Di, 22.01. 8:40 keine Meldung -
Di, 22.01. 8:30 0.0 l/m2 in 1 Std. -
Di, 22.01. 8:00 0.0 l/m2 in 1 Std. -
Di, 22.01. 7:30 0.0 l/m2 in 1 Std. -
Di, 22.01. 7:00 0.0 l/m2 in 1 Std. -
Di, 22.01. 6:30 0.0 l/m2 in 1 Std. -
Ortszeit Stärke Spitze Richtung
km/h Bft. km/h Grad Sektor
Di, 22.01. 7:00 0 0 4 - -
Di, 22.01. 1:00 0 0 7 - -
Mo, 21.01. 19:00 4 1 18 160° S
Mo, 21.01. 13:00 6 1 9 210° SW
Mo, 21.01. 7:00 4 1 7 330° NW
Mo, 21.01. 1:00 0 0 14 - -
So, 20.01. 19:00 7 2 18 40° NO
So, 20.01. 13:00 9 2 13 350° N
Ortszeit Stärke Spitze Richtung
km/h Bft. km/h Grad Sektor
Di, 22.01. 9:30 0 0 4 - -
Di, 22.01. 9:20 0 0 - 280° W
Di, 22.01. 9:10 2 1 - 240° SW
Di, 22.01. 9:00 0 0 4 - -
Di, 22.01. 8:50 0 0 - 250° W
Di, 22.01. 8:40 0 0 - 150° SO
Di, 22.01. 8:30 0 0 4 - -
Di, 22.01. 8:00 4 1 4 230° SW
Di, 22.01. 7:30 0 0 4 - -
Di, 22.01. 7:00 0 0 4 - -
Di, 22.01. 6:30 2 1 4 70° O
Ortszeit Untergrenze Bedeckung Gattung
total tief tief mittel hoch
Di, 22.01. 7:00 2100 m 6/8 - - - -
Di, 22.01. 1:00 - 0/8 0/8 - - -
Mo, 21.01. 19:00 - 0/8 0/8 - - -
Mo, 21.01. 13:00 - 0/8 0/8 - - -
Mo, 21.01. 7:00 510 m 8/8 8/8 - - -
Mo, 21.01. 1:00 - 0/8 0/8 - - -
So, 20.01. 19:00 - 0/8 0/8 - - -
So, 20.01. 13:00 - 0/8 0/8 - - -
Ortszeit Bedeckungsgrad in Achtel und Wolkenuntergrenze
Di, 22.01. 9:30 8(240m)
Di, 22.01. 9:20 8(240m)
Di, 22.01. 9:10 8(270m)
Di, 22.01. 9:00 7(300m) 7(7200m) 7(7800m)
Di, 22.01. 8:50 7(300m) 7(7200m) 7(7800m)
Di, 22.01. 8:40 7(300m) 7(7500m)
Di, 22.01. 8:30 2(330m) 4(7200m) 5(7800m)
Di, 22.01. 8:00 1(2100m) 4(7200m)
Di, 22.01. 7:30 3(2100m) 4(7200m)
Di, 22.01. 7:00 1(2100m) 4(6000m) 6(6900m)
Di, 22.01. 6:30 2(2100m) 9 9
Ortszeit Luftdruck NN (hPa) Tendenz (hPa in 3 Std.)
Di, 22.01. 7:00 1017 - 1,8
Di, 22.01. 1:00 1021 - 0,9
Mo, 21.01. 19:00 1021 - 0,8
Mo, 21.01. 13:00 1023 - 1,1
Mo, 21.01. 7:00 1025 + 0,1
Mo, 21.01. 1:00 1024 + 1,4
So, 20.01. 19:00 1020 + 1,5
So, 20.01. 13:00 1019 + 0,6
Ortszeit Luftdruck NN (hPa) Tendenz (hPa in 3 Std.)
Di, 22.01. 9:30 1016 - 1,2
Di, 22.01. 9:20 1016 keine Meldung
Di, 22.01. 9:10 1016 keine Meldung
Di, 22.01. 9:00 1016 - 1,0
Di, 22.01. 8:50 1016 keine Meldung
Di, 22.01. 8:40 1016 keine Meldung
Di, 22.01. 8:30 1016 - 1,1
Di, 22.01. 8:00 1016 - 1,6
Di, 22.01. 7:30 1016 - 1,6
Di, 22.01. 7:00 1017 - 1,8
Di, 22.01. 6:30 1017 - 2,2
Ortszeit Schneehöhe (cm)
Di, 22.01. 7:00 0
Di, 22.01. 1:00 0
Mo, 21.01. 19:00 1
Mo, 21.01. 13:00 1
Mo, 21.01. 7:00 0
Mo, 21.01. 1:00 0
So, 20.01. 19:00 0
So, 20.01. 13:00 2
Ortszeit Schneehöhe (cm)
Di, 22.01. 9:30 0
Di, 22.01. 9:20 0
Di, 22.01. 9:10 0
Di, 22.01. 9:00 0
Di, 22.01. 8:50 0
Di, 22.01. 8:40 0
Di, 22.01. 8:30 0
Di, 22.01. 8:00 0
Di, 22.01. 7:30 0
Di, 22.01. 7:00 0
Di, 22.01. 6:30 0
Link zu dieser Seite / Seite empfehlen

Das Wetter in ...